sensor_id;sensor_type;location;lat;lon;timestamp;P1;durP1;ratioP1;P2;durP2;ratioP2
17091;SDS011;8661;45.700;4.880;2022-12-08T00:01:25;27.40;;;16.13;;
17091;SDS011;8661;45.700;4.880;2022-12-08T00:03:54;27.03;;;14.97;;
17091;SDS011;8661;45.700;4.880;2022-12-08T00:06:22;29.13;;;16.97;;
17091;SDS011;8661;45.700;4.880;2022-12-08T00:09:14;32.53;;;16.93;;
17091;SDS011;8661;45.700;4.880;2022-12-08T00:11:52;26.40;;;15.97;;
17091;SDS011;8661;45.700;4.880;2022-12-08T00:14:21;29.43;;;15.70;;
17091;SDS011;8661;45.700;4.880;2022-12-08T00:16:50;26.83;;;16.43;;
17091;SDS011;8661;45.700;4.880;2022-12-08T00:19:18;28.60;;;16.53;;
17091;SDS011;8661;45.700;4.880;2022-12-08T00:21:45;29.47;;;16.53;;
17091;SDS011;8661;45.700;4.880;2022-12-08T00:24:13;29.13;;;16.57;;
17091;SDS011;8661;45.700;4.880;2022-12-08T00:26:40;24.70;;;15.10;;
17091;SDS011;8661;45.700;4.880;2022-12-08T00:29:07;26.53;;;16.60;;
17091;SDS011;8661;45.700;4.880;2022-12-08T00:31:35;28.47;;;17.27;;
17091;SDS011;8661;45.700;4.880;2022-12-08T00:34:03;25.73;;;16.70;;
17091;SDS011;8661;45.700;4.880;2022-12-08T00:36:31;29.87;;;16.40;;
17091;SDS011;8661;45.700;4.880;2022-12-08T00:38:58;24.60;;;15.40;;
17091;SDS011;8661;45.700;4.880;2022-12-08T00:41:26;28.17;;;17.07;;
17091;SDS011;8661;45.700;4.880;2022-12-08T00:44:17;68.57;;;29.30;;
17091;SDS011;8661;45.700;4.880;2022-12-08T00:46:45;77.17;;;32.23;;
17091;SDS011;8661;45.700;4.880;2022-12-08T00:49:13;64.83;;;28.17;;
17091;SDS011;8661;45.700;4.880;2022-12-08T00:51:41;66.70;;;29.03;;
17091;SDS011;8661;45.700;4.880;2022-12-08T00:54:09;51.27;;;23.77;;
17091;SDS011;8661;45.700;4.880;2022-12-08T00:56:37;42.80;;;19.67;;
17091;SDS011;8661;45.700;4.880;2022-12-08T00:59:06;34.10;;;18.50;;
17091;SDS011;8661;45.700;4.880;2022-12-08T01:01:33;32.93;;;17.20;;
17091;SDS011;8661;45.700;4.880;2022-12-08T01:04:02;31.13;;;16.43;;
17091;SDS011;8661;45.700;4.880;2022-12-08T01:06:29;26.00;;;14.97;;
17091;SDS011;8661;45.700;4.880;2022-12-08T01:08:56;24.90;;;14.83;;
17091;SDS011;8661;45.700;4.880;2022-12-08T01:11:23;27.87;;;14.73;;
17091;SDS011;8661;45.700;4.880;2022-12-08T01:13:52;28.67;;;15.17;;
17091;SDS011;8661;45.700;4.880;2022-12-08T01:16:20;25.43;;;14.83;;
17091;SDS011;8661;45.700;4.880;2022-12-08T01:18:48;24.80;;;14.30;;
17091;SDS011;8661;45.700;4.880;2022-12-08T01:21:15;23.77;;;13.60;;
17091;SDS011;8661;45.700;4.880;2022-12-08T01:23:42;26.70;;;15.27;;
17091;SDS011;8661;45.700;4.880;2022-12-08T01:26:10;23.07;;;13.60;;
17091;SDS011;8661;45.700;4.880;2022-12-08T01:28:39;19.50;;;13.10;;
17091;SDS011;8661;45.700;4.880;2022-12-08T01:31:11;19.60;;;12.80;;
17091;SDS011;8661;45.700;4.880;2022-12-08T01:33:39;20.47;;;12.63;;
17091;SDS011;8661;45.700;4.880;2022-12-08T01:36:06;22.07;;;12.77;;
17091;SDS011;8661;45.700;4.880;2022-12-08T01:38:34;19.23;;;12.43;;
17091;SDS011;8661;45.700;4.880;2022-12-08T01:41:01;20.60;;;11.77;;
17091;SDS011;8661;45.700;4.880;2022-12-08T01:46:27;18.83;;;12.17;;
17091;SDS011;8661;45.700;4.880;2022-12-08T01:48:56;18.43;;;10.53;;
17091;SDS011;8661;45.700;4.880;2022-12-08T01:51:28;17.07;;;11.03;;
17091;SDS011;8661;45.700;4.880;2022-12-08T01:53:58;23.03;;;10.77;;
17091;SDS011;8661;45.700;4.880;2022-12-08T01:56:29;17.00;;;10.63;;
17091;SDS011;8661;45.700;4.880;2022-12-08T01:59:01;18.53;;;11.10;;
17091;SDS011;8661;45.700;4.880;2022-12-08T02:01:30;17.37;;;10.93;;
17091;SDS011;8661;45.700;4.880;2022-12-08T02:03:58;20.50;;;10.63;;
17091;SDS011;8661;45.700;4.880;2022-12-08T02:06:26;14.77;;;9.60;;
17091;SDS011;8661;45.700;4.880;2022-12-08T02:08:56;16.03;;;10.10;;
17091;SDS011;8661;45.700;4.880;2022-12-08T02:11:27;13.97;;;9.87;;
17091;SDS011;8661;45.700;4.880;2022-12-08T02:13:54;16.90;;;9.70;;
17091;SDS011;8661;45.700;4.880;2022-12-08T02:16:32;17.53;;;10.53;;
17091;SDS011;8661;45.700;4.880;2022-12-08T02:19:14;20.03;;;11.03;;
17091;SDS011;8661;45.700;4.880;2022-12-08T02:21:59;15.40;;;10.03;;
17091;SDS011;8661;45.700;4.880;2022-12-08T02:24:33;18.40;;;10.37;;
17091;SDS011;8661;45.700;4.880;2022-12-08T02:30:23;15.93;;;10.10;;
17091;SDS011;8661;45.700;4.880;2022-12-08T02:36:10;14.20;;;9.17;;
17091;SDS011;8661;45.700;4.880;2022-12-08T02:38:47;17.67;;;10.97;;
17091;SDS011;8661;45.700;4.880;2022-12-08T02:41:27;15.07;;;10.03;;
17091;SDS011;8661;45.700;4.880;2022-12-08T02:44:01;18.17;;;10.57;;
17091;SDS011;8661;45.700;4.880;2022-12-08T02:46:37;18.40;;;11.50;;
17091;SDS011;8661;45.700;4.880;2022-12-08T02:49:09;20.53;;;12.43;;
17091;SDS011;8661;45.700;4.880;2022-12-08T02:51:39;19.07;;;11.60;;
17091;SDS011;8661;45.700;4.880;2022-12-08T02:54:06;18.07;;;10.77;;
17091;SDS011;8661;45.700;4.880;2022-12-08T02:56:36;16.40;;;9.97;;
17091;SDS011;8661;45.700;4.880;2022-12-08T02:59:21;17.23;;;10.73;;
17091;SDS011;8661;45.700;4.880;2022-12-08T03:02:01;17.20;;;10.63;;
17091;SDS011;8661;45.700;4.880;2022-12-08T03:04:44;16.97;;;9.90;;
17091;SDS011;8661;45.700;4.880;2022-12-08T03:07:14;17.43;;;10.10;;
17091;SDS011;8661;45.700;4.880;2022-12-08T03:09:48;14.50;;;9.33;;
17091;SDS011;8661;45.700;4.880;2022-12-08T03:12:22;15.97;;;9.90;;
17091;SDS011;8661;45.700;4.880;2022-12-08T03:14:55;17.47;;;10.57;;
17091;SDS011;8661;45.700;4.880;2022-12-08T03:17:27;16.87;;;9.97;;
17091;SDS011;8661;45.700;4.880;2022-12-08T03:19:58;15.70;;;10.17;;
17091;SDS011;8661;45.700;4.880;2022-12-08T03:22:29;15.23;;;10.03;;
17091;SDS011;8661;45.700;4.880;2022-12-08T03:24:57;19.87;;;10.77;;
17091;SDS011;8661;45.700;4.880;2022-12-08T03:27:25;18.23;;;10.00;;
17091;SDS011;8661;45.700;4.880;2022-12-08T03:29:57;15.83;;;10.13;;
17091;SDS011;8661;45.700;4.880;2022-12-08T03:32:25;17.07;;;10.03;;
17091;SDS011;8661;45.700;4.880;2022-12-08T03:34:59;15.03;;;9.63;;
17091;SDS011;8661;45.700;4.880;2022-12-08T03:37:28;16.07;;;10.03;;
17091;SDS011;8661;45.700;4.880;2022-12-08T03:39:55;18.20;;;10.23;;
17091;SDS011;8661;45.700;4.880;2022-12-08T03:42:22;18.60;;;10.00;;
17091;SDS011;8661;45.700;4.880;2022-12-08T03:44:49;16.10;;;9.70;;
17091;SDS011;8661;45.700;4.880;2022-12-08T03:47:16;17.47;;;10.13;;
17091;SDS011;8661;45.700;4.880;2022-12-08T03:49:42;17.37;;;8.97;;
17091;SDS011;8661;45.700;4.880;2022-12-08T03:52:11;16.73;;;9.33;;
17091;SDS011;8661;45.700;4.880;2022-12-08T03:54:38;19.43;;;10.87;;
17091;SDS011;8661;45.700;4.880;2022-12-08T03:57:04;19.67;;;10.37;;
17091;SDS011;8661;45.700;4.880;2022-12-08T03:59:31;14.73;;;9.20;;
17091;SDS011;8661;45.700;4.880;2022-12-08T04:01:58;16.63;;;10.07;;
17091;SDS011;8661;45.700;4.880;2022-12-08T04:04:25;16.03;;;10.00;;
17091;SDS011;8661;45.700;4.880;2022-12-08T04:06:52;14.90;;;9.90;;
17091;SDS011;8661;45.700;4.880;2022-12-08T04:09:21;15.73;;;9.77;;
17091;SDS011;8661;45.700;4.880;2022-12-08T04:11:48;19.33;;;10.93;;
17091;SDS011;8661;45.700;4.880;2022-12-08T04:14:14;19.67;;;10.43;;
17091;SDS011;8661;45.700;4.880;2022-12-08T04:16:41;15.87;;;9.50;;
17091;SDS011;8661;45.700;4.880;2022-12-08T04:19:08;17.70;;;10.03;;
17091;SDS011;8661;45.700;4.880;2022-12-08T04:21:35;17.10;;;9.67;;
17091;SDS011;8661;45.700;4.880;2022-12-08T04:24:02;17.07;;;9.60;;
17091;SDS011;8661;45.700;4.880;2022-12-08T04:26:30;16.43;;;10.20;;
17091;SDS011;8661;45.700;4.880;2022-12-08T04:28:57;19.83;;;10.67;;
17091;SDS011;8661;45.700;4.880;2022-12-08T04:31:24;21.00;;;10.87;;
17091;SDS011;8661;45.700;4.880;2022-12-08T04:33:51;18.17;;;10.60;;
17091;SDS011;8661;45.700;4.880;2022-12-08T04:36:18;19.80;;;11.37;;
17091;SDS011;8661;45.700;4.880;2022-12-08T04:38:45;20.93;;;11.83;;
17091;SDS011;8661;45.700;4.880;2022-12-08T04:41:12;18.30;;;10.47;;
17091;SDS011;8661;45.700;4.880;2022-12-08T04:43:40;17.80;;;10.23;;
17091;SDS011;8661;45.700;4.880;2022-12-08T04:46:08;16.07;;;10.13;;
17091;SDS011;8661;45.700;4.880;2022-12-08T04:48:36;19.73;;;10.63;;
17091;SDS011;8661;45.700;4.880;2022-12-08T04:51:03;19.23;;;10.73;;
17091;SDS011;8661;45.700;4.880;2022-12-08T04:53:31;18.43;;;10.20;;
17091;SDS011;8661;45.700;4.880;2022-12-08T04:55:58;16.20;;;9.80;;
17091;SDS011;8661;45.700;4.880;2022-12-08T04:58:25;18.87;;;10.77;;
17091;SDS011;8661;45.700;4.880;2022-12-08T05:00:53;18.87;;;11.63;;
17091;SDS011;8661;45.700;4.880;2022-12-08T05:03:20;20.63;;;12.63;;
17091;SDS011;8661;45.700;4.880;2022-12-08T05:05:47;24.87;;;13.57;;
17091;SDS011;8661;45.700;4.880;2022-12-08T05:08:14;21.00;;;12.57;;
17091;SDS011;8661;45.700;4.880;2022-12-08T05:10:40;23.07;;;12.20;;
17091;SDS011;8661;45.700;4.880;2022-12-08T05:13:08;21.13;;;12.13;;
17091;SDS011;8661;45.700;4.880;2022-12-08T05:15:34;21.57;;;12.73;;
17091;SDS011;8661;45.700;4.880;2022-12-08T05:18:04;18.17;;;11.23;;
17091;SDS011;8661;45.700;4.880;2022-12-08T05:20:31;17.80;;;10.80;;
17091;SDS011;8661;45.700;4.880;2022-12-08T05:22:59;18.53;;;10.43;;
17091;SDS011;8661;45.700;4.880;2022-12-08T05:25:26;19.00;;;11.20;;
17091;SDS011;8661;45.700;4.880;2022-12-08T05:27:53;18.13;;;10.50;;
17091;SDS011;8661;45.700;4.880;2022-12-08T05:30:20;18.03;;;11.67;;
17091;SDS011;8661;45.700;4.880;2022-12-08T05:32:47;19.10;;;11.00;;
17091;SDS011;8661;45.700;4.880;2022-12-08T05:35:15;20.10;;;13.47;;
17091;SDS011;8661;45.700;4.880;2022-12-08T05:37:42;20.73;;;10.87;;
17091;SDS011;8661;45.700;4.880;2022-12-08T05:40:09;21.83;;;12.27;;
17091;SDS011;8661;45.700;4.880;2022-12-08T05:42:36;24.20;;;12.60;;
17091;SDS011;8661;45.700;4.880;2022-12-08T05:45:03;20.33;;;11.80;;
17091;SDS011;8661;45.700;4.880;2022-12-08T05:47:31;23.10;;;13.07;;
17091;SDS011;8661;45.700;4.880;2022-12-08T05:50:01;24.53;;;12.20;;
17091;SDS011;8661;45.700;4.880;2022-12-08T05:52:29;19.33;;;12.70;;
17091;SDS011;8661;45.700;4.880;2022-12-08T05:54:56;22.30;;;12.97;;
17091;SDS011;8661;45.700;4.880;2022-12-08T05:57:23;19.93;;;12.77;;
17091;SDS011;8661;45.700;4.880;2022-12-08T05:59:50;23.13;;;12.90;;
17091;SDS011;8661;45.700;4.880;2022-12-08T06:02:17;23.20;;;13.13;;
17091;SDS011;8661;45.700;4.880;2022-12-08T06:04:44;27.27;;;13.70;;
17091;SDS011;8661;45.700;4.880;2022-12-08T06:07:11;23.93;;;13.10;;
17091;SDS011;8661;45.700;4.880;2022-12-08T06:09:39;19.47;;;11.80;;
17091;SDS011;8661;45.700;4.880;2022-12-08T06:12:06;24.53;;;13.30;;
17091;SDS011;8661;45.700;4.880;2022-12-08T06:14:36;21.90;;;13.10;;
17091;SDS011;8661;45.700;4.880;2022-12-08T06:17:03;22.10;;;12.67;;
17091;SDS011;8661;45.700;4.880;2022-12-08T06:19:30;22.80;;;13.00;;
17091;SDS011;8661;45.700;4.880;2022-12-08T06:21:57;26.97;;;13.67;;
17091;SDS011;8661;45.700;4.880;2022-12-08T06:24:24;22.27;;;14.33;;
17091;SDS011;8661;45.700;4.880;2022-12-08T06:26:52;27.63;;;15.73;;
17091;SDS011;8661;45.700;4.880;2022-12-08T06:29:19;21.20;;;14.10;;
17091;SDS011;8661;45.700;4.880;2022-12-08T06:31:46;22.00;;;13.77;;
17091;SDS011;8661;45.700;4.880;2022-12-08T06:34:13;25.83;;;14.60;;
17091;SDS011;8661;45.700;4.880;2022-12-08T06:36:40;21.33;;;13.17;;
17091;SDS011;8661;45.700;4.880;2022-12-08T06:39:07;20.70;;;13.20;;
17091;SDS011;8661;45.700;4.880;2022-12-08T06:41:34;22.57;;;12.43;;
17091;SDS011;8661;45.700;4.880;2022-12-08T06:44:23;18.73;;;11.67;;
17091;SDS011;8661;45.700;4.880;2022-12-08T06:46:50;21.73;;;11.90;;
17091;SDS011;8661;45.700;4.880;2022-12-08T06:49:17;21.50;;;12.93;;
17091;SDS011;8661;45.700;4.880;2022-12-08T06:51:44;21.73;;;12.97;;
17091;SDS011;8661;45.700;4.880;2022-12-08T06:54:11;19.07;;;12.43;;
17091;SDS011;8661;45.700;4.880;2022-12-08T06:56:38;20.90;;;13.40;;
17091;SDS011;8661;45.700;4.880;2022-12-08T06:59:05;23.30;;;14.17;;
17091;SDS011;8661;45.700;4.880;2022-12-08T07:01:33;21.47;;;12.97;;
17091;SDS011;8661;45.700;4.880;2022-12-08T07:04:00;21.90;;;13.00;;
17091;SDS011;8661;45.700;4.880;2022-12-08T07:06:27;23.40;;;13.73;;
17091;SDS011;8661;45.700;4.880;2022-12-08T07:08:54;23.27;;;13.03;;
17091;SDS011;8661;45.700;4.880;2022-12-08T07:11:21;21.07;;;13.63;;
17091;SDS011;8661;45.700;4.880;2022-12-08T07:13:48;22.83;;;13.80;;
17091;SDS011;8661;45.700;4.880;2022-12-08T07:16:15;22.93;;;14.10;;
17091;SDS011;8661;45.700;4.880;2022-12-08T07:18:43;24.13;;;15.00;;
17091;SDS011;8661;45.700;4.880;2022-12-08T07:21:11;26.03;;;15.00;;
17091;SDS011;8661;45.700;4.880;2022-12-08T07:23:39;25.50;;;14.73;;
17091;SDS011;8661;45.700;4.880;2022-12-08T07:26:08;27.13;;;13.60;;
17091;SDS011;8661;45.700;4.880;2022-12-08T07:28:37;22.63;;;14.27;;
17091;SDS011;8661;45.700;4.880;2022-12-08T07:31:05;30.50;;;15.33;;
17091;SDS011;8661;45.700;4.880;2022-12-08T07:33:33;25.17;;;14.03;;
17091;SDS011;8661;45.700;4.880;2022-12-08T07:36:02;24.80;;;14.90;;
17091;SDS011;8661;45.700;4.880;2022-12-08T07:38:30;26.33;;;14.60;;
17091;SDS011;8661;45.700;4.880;2022-12-08T07:40:58;25.10;;;14.60;;
17091;SDS011;8661;45.700;4.880;2022-12-08T07:43:25;23.63;;;14.53;;
17091;SDS011;8661;45.700;4.880;2022-12-08T07:45:52;23.83;;;14.10;;
17091;SDS011;8661;45.700;4.880;2022-12-08T07:48:19;24.17;;;14.47;;
17091;SDS011;8661;45.700;4.880;2022-12-08T07:50:46;29.53;;;17.37;;
17091;SDS011;8661;45.700;4.880;2022-12-08T07:53:14;27.20;;;15.80;;
17091;SDS011;8661;45.700;4.880;2022-12-08T07:55:41;31.00;;;16.37;;
17091;SDS011;8661;45.700;4.880;2022-12-08T07:58:09;28.17;;;15.17;;
17091;SDS011;8661;45.700;4.880;2022-12-08T08:00:36;28.57;;;15.57;;
17091;SDS011;8661;45.700;4.880;2022-12-08T08:03:03;32.27;;;16.30;;
17091;SDS011;8661;45.700;4.880;2022-12-08T08:05:30;28.83;;;15.40;;
17091;SDS011;8661;45.700;4.880;2022-12-08T08:07:57;25.87;;;15.63;;
17091;SDS011;8661;45.700;4.880;2022-12-08T08:10:25;27.33;;;16.07;;
17091;SDS011;8661;45.700;4.880;2022-12-08T08:12:52;29.27;;;15.43;;
17091;SDS011;8661;45.700;4.880;2022-12-08T08:15:19;26.93;;;15.83;;
17091;SDS011;8661;45.700;4.880;2022-12-08T08:17:47;25.97;;;15.47;;
17091;SDS011;8661;45.700;4.880;2022-12-08T08:20:16;24.30;;;14.70;;
17091;SDS011;8661;45.700;4.880;2022-12-08T08:22:44;29.27;;;16.30;;
17091;SDS011;8661;45.700;4.880;2022-12-08T08:25:11;25.57;;;15.57;;
17091;SDS011;8661;45.700;4.880;2022-12-08T08:27:40;27.87;;;16.13;;
17091;SDS011;8661;45.700;4.880;2022-12-08T08:30:08;29.10;;;15.53;;
17091;SDS011;8661;45.700;4.880;2022-12-08T08:32:37;29.00;;;14.77;;
17091;SDS011;8661;45.700;4.880;2022-12-08T08:35:04;23.53;;;15.10;;
17091;SDS011;8661;45.700;4.880;2022-12-08T08:37:31;23.77;;;14.57;;
17091;SDS011;8661;45.700;4.880;2022-12-08T08:39:58;25.50;;;14.70;;
17091;SDS011;8661;45.700;4.880;2022-12-08T08:42:25;23.53;;;14.33;;
17091;SDS011;8661;45.700;4.880;2022-12-08T08:44:54;27.37;;;15.17;;
17091;SDS011;8661;45.700;4.880;2022-12-08T08:47:21;26.17;;;14.60;;
17091;SDS011;8661;45.700;4.880;2022-12-08T08:49:47;25.93;;;14.97;;
17091;SDS011;8661;45.700;4.880;2022-12-08T08:52:15;23.27;;;13.27;;
17091;SDS011;8661;45.700;4.880;2022-12-08T08:54:42;26.83;;;14.50;;
17091;SDS011;8661;45.700;4.880;2022-12-08T08:57:09;19.10;;;12.27;;
17091;SDS011;8661;45.700;4.880;2022-12-08T08:59:36;25.23;;;14.83;;
17091;SDS011;8661;45.700;4.880;2022-12-08T09:02:04;24.73;;;12.73;;
17091;SDS011;8661;45.700;4.880;2022-12-08T09:04:31;23.70;;;14.00;;
17091;SDS011;8661;45.700;4.880;2022-12-08T09:06:58;23.33;;;14.13;;
17091;SDS011;8661;45.700;4.880;2022-12-08T09:09:26;23.03;;;13.70;;
17091;SDS011;8661;45.700;4.880;2022-12-08T09:11:53;26.07;;;13.77;;
17091;SDS011;8661;45.700;4.880;2022-12-08T09:14:20;24.73;;;15.43;;
17091;SDS011;8661;45.700;4.880;2022-12-08T09:16:47;23.67;;;13.50;;
17091;SDS011;8661;45.700;4.880;2022-12-08T09:19:16;20.90;;;14.23;;
17091;SDS011;8661;45.700;4.880;2022-12-08T09:21:43;25.93;;;14.57;;
17091;SDS011;8661;45.700;4.880;2022-12-08T09:24:10;23.87;;;14.90;;
17091;SDS011;8661;45.700;4.880;2022-12-08T09:26:40;22.50;;;13.37;;
17091;SDS011;8661;45.700;4.880;2022-12-08T09:29:08;23.60;;;14.67;;
17091;SDS011;8661;45.700;4.880;2022-12-08T09:31:35;30.53;;;15.43;;
17091;SDS011;8661;45.700;4.880;2022-12-08T09:34:03;24.63;;;14.77;;
17091;SDS011;8661;45.700;4.880;2022-12-08T09:36:32;29.83;;;15.33;;
17091;SDS011;8661;45.700;4.880;2022-12-08T09:38:59;31.43;;;15.27;;
17091;SDS011;8661;45.700;4.880;2022-12-08T09:41:28;28.20;;;15.27;;
17091;SDS011;8661;45.700;4.880;2022-12-08T09:44:00;29.13;;;15.43;;
17091;SDS011;8661;45.700;4.880;2022-12-08T09:46:32;26.00;;;15.07;;
17091;SDS011;8661;45.700;4.880;2022-12-08T09:49:01;24.83;;;15.20;;
17091;SDS011;8661;45.700;4.880;2022-12-08T09:51:32;27.60;;;16.60;;
17091;SDS011;8661;45.700;4.880;2022-12-08T09:54:06;29.40;;;16.73;;
17091;SDS011;8661;45.700;4.880;2022-12-08T09:56:37;25.97;;;15.07;;
17091;SDS011;8661;45.700;4.880;2022-12-08T09:59:05;30.00;;;17.53;;
17091;SDS011;8661;45.700;4.880;2022-12-08T10:01:47;28.40;;;15.60;;
17091;SDS011;8661;45.700;4.880;2022-12-08T10:04:17;33.03;;;16.13;;
17091;SDS011;8661;45.700;4.880;2022-12-08T10:06:50;27.27;;;14.70;;
17091;SDS011;8661;45.700;4.880;2022-12-08T10:09:28;26.57;;;15.80;;
17091;SDS011;8661;45.700;4.880;2022-12-08T10:12:10;27.10;;;16.17;;
17091;SDS011;8661;45.700;4.880;2022-12-08T10:14:42;31.30;;;17.67;;
17091;SDS011;8661;45.700;4.880;2022-12-08T10:17:13;29.17;;;16.30;;
17091;SDS011;8661;45.700;4.880;2022-12-08T10:19:45;28.93;;;15.20;;
17091;SDS011;8661;45.700;4.880;2022-12-08T10:22:17;30.20;;;16.17;;
17091;SDS011;8661;45.700;4.880;2022-12-08T10:24:50;27.70;;;15.53;;
17091;SDS011;8661;45.700;4.880;2022-12-08T10:27:21;36.00;;;16.20;;
17091;SDS011;8661;45.700;4.880;2022-12-08T10:29:48;28.93;;;16.50;;
17091;SDS011;8661;45.700;4.880;2022-12-08T10:32:17;26.80;;;15.40;;
17091;SDS011;8661;45.700;4.880;2022-12-08T10:34:57;27.83;;;16.23;;
17091;SDS011;8661;45.700;4.880;2022-12-08T10:37:27;28.17;;;16.07;;
17091;SDS011;8661;45.700;4.880;2022-12-08T10:40:00;28.70;;;16.37;;
17091;SDS011;8661;45.700;4.880;2022-12-08T10:42:32;27.87;;;15.60;;
17091;SDS011;8661;45.700;4.880;2022-12-08T10:45:11;27.37;;;16.23;;
17091;SDS011;8661;45.700;4.880;2022-12-08T10:47:53;28.60;;;16.33;;
17091;SDS011;8661;45.700;4.880;2022-12-08T10:50:23;29.27;;;15.90;;
17091;SDS011;8661;45.700;4.880;2022-12-08T10:52:57;28.63;;;17.03;;
17091;SDS011;8661;45.700;4.880;2022-12-08T10:55:25;25.97;;;15.20;;
17091;SDS011;8661;45.700;4.880;2022-12-08T10:57:54;25.87;;;15.70;;
17091;SDS011;8661;45.700;4.880;2022-12-08T11:00:22;30.50;;;17.40;;
17091;SDS011;8661;45.700;4.880;2022-12-08T11:02:52;28.53;;;16.37;;
17091;SDS011;8661;45.700;4.880;2022-12-08T11:05:27;23.27;;;14.53;;
17091;SDS011;8661;45.700;4.880;2022-12-08T11:07:58;30.23;;;16.60;;
17091;SDS011;8661;45.700;4.880;2022-12-08T11:10:29;26.67;;;15.70;;
17091;SDS011;8661;45.700;4.880;2022-12-08T11:13:00;26.17;;;16.07;;
17091;SDS011;8661;45.700;4.880;2022-12-08T11:15:31;28.17;;;16.73;;
17091;SDS011;8661;45.700;4.880;2022-12-08T11:18:05;29.20;;;16.10;;
17091;SDS011;8661;45.700;4.880;2022-12-08T11:20:37;27.67;;;16.33;;
17091;SDS011;8661;45.700;4.880;2022-12-08T11:23:17;29.27;;;17.23;;
17091;SDS011;8661;45.700;4.880;2022-12-08T11:25:46;26.27;;;16.37;;
17091;SDS011;8661;45.700;4.880;2022-12-08T11:28:14;26.70;;;15.00;;
17091;SDS011;8661;45.700;4.880;2022-12-08T11:30:48;26.30;;;16.53;;
17091;SDS011;8661;45.700;4.880;2022-12-08T11:33:18;25.27;;;15.07;;
17091;SDS011;8661;45.700;4.880;2022-12-08T11:35:49;25.80;;;16.00;;
17091;SDS011;8661;45.700;4.880;2022-12-08T11:38:22;27.77;;;16.33;;
17091;SDS011;8661;45.700;4.880;2022-12-08T11:40:51;29.10;;;17.67;;
17091;SDS011;8661;45.700;4.880;2022-12-08T11:43:21;25.27;;;16.50;;
17091;SDS011;8661;45.700;4.880;2022-12-08T11:45:54;28.53;;;16.40;;
17091;SDS011;8661;45.700;4.880;2022-12-08T11:48:25;27.37;;;16.67;;
17091;SDS011;8661;45.700;4.880;2022-12-08T11:50:58;28.07;;;16.83;;
17091;SDS011;8661;45.700;4.880;2022-12-08T11:53:34;35.00;;;17.73;;
17091;SDS011;8661;45.700;4.880;2022-12-08T11:56:09;37.30;;;17.73;;
17091;SDS011;8661;45.700;4.880;2022-12-08T11:58:43;36.33;;;17.67;;
17091;SDS011;8661;45.700;4.880;2022-12-08T12:01:16;33.50;;;18.07;;
17091;SDS011;8661;45.700;4.880;2022-12-08T12:03:46;30.60;;;16.67;;
17091;SDS011;8661;45.700;4.880;2022-12-08T12:06:26;32.43;;;17.20;;
17091;SDS011;8661;45.700;4.880;2022-12-08T12:09:06;32.37;;;16.60;;
17091;SDS011;8661;45.700;4.880;2022-12-08T12:11:42;32.07;;;16.43;;
17091;SDS011;8661;45.700;4.880;2022-12-08T12:14:42;37.73;;;19.03;;
17091;SDS011;8661;45.700;4.880;2022-12-08T12:17:28;36.63;;;17.93;;
17091;SDS011;8661;45.700;4.880;2022-12-08T12:20:08;34.67;;;17.60;;
17091;SDS011;8661;45.700;4.880;2022-12-08T12:22:40;29.57;;;16.43;;
17091;SDS011;8661;45.700;4.880;2022-12-08T12:25:16;30.87;;;17.50;;
17091;SDS011;8661;45.700;4.880;2022-12-08T12:27:46;27.27;;;16.07;;
17091;SDS011;8661;45.700;4.880;2022-12-08T12:30:18;30.23;;;17.13;;
17091;SDS011;8661;45.700;4.880;2022-12-08T12:32:47;28.70;;;17.30;;
17091;SDS011;8661;45.700;4.880;2022-12-08T12:35:20;27.93;;;17.07;;
17091;SDS011;8661;45.700;4.880;2022-12-08T12:37:55;28.83;;;16.80;;
17091;SDS011;8661;45.700;4.880;2022-12-08T12:40:27;27.37;;;16.77;;
17091;SDS011;8661;45.700;4.880;2022-12-08T12:43:12;30.40;;;16.90;;
17091;SDS011;8661;45.700;4.880;2022-12-08T12:45:58;26.23;;;16.53;;
17091;SDS011;8661;45.700;4.880;2022-12-08T12:55:37;25.50;;;15.20;;
17091;SDS011;8661;45.700;4.880;2022-12-08T12:58:38;30.03;;;17.03;;
17091;SDS011;8661;45.700;4.880;2022-12-08T13:04:03;30.73;;;17.50;;
17091;SDS011;8661;45.700;4.880;2022-12-08T13:06:32;28.20;;;17.93;;
17091;SDS011;8661;45.700;4.880;2022-12-08T13:09:03;26.60;;;17.20;;
17091;SDS011;8661;45.700;4.880;2022-12-08T13:11:42;31.33;;;17.47;;
17091;SDS011;8661;45.700;4.880;2022-12-08T13:14:23;27.93;;;17.27;;
17091;SDS011;8661;45.700;4.880;2022-12-08T13:16:56;30.10;;;17.17;;
17091;SDS011;8661;45.700;4.880;2022-12-08T13:19:25;29.73;;;17.23;;
17091;SDS011;8661;45.700;4.880;2022-12-08T13:21:56;33.00;;;17.93;;
17091;SDS011;8661;45.700;4.880;2022-12-08T13:24:26;28.60;;;17.93;;
17091;SDS011;8661;45.700;4.880;2022-12-08T13:32:57;30.60;;;18.03;;
17091;SDS011;8661;45.700;4.880;2022-12-08T13:35:26;29.70;;;17.90;;
17091;SDS011;8661;45.700;4.880;2022-12-08T13:37:53;28.73;;;16.97;;
17091;SDS011;8661;45.700;4.880;2022-12-08T13:40:23;28.90;;;17.67;;
17091;SDS011;8661;45.700;4.880;2022-12-08T13:42:55;33.97;;;19.40;;
17091;SDS011;8661;45.700;4.880;2022-12-08T13:45:29;31.57;;;18.30;;
17091;SDS011;8661;45.700;4.880;2022-12-08T13:48:02;33.63;;;18.90;;
17091;SDS011;8661;45.700;4.880;2022-12-08T13:50:38;35.80;;;18.87;;
17091;SDS011;8661;45.700;4.880;2022-12-08T13:53:10;37.53;;;19.90;;
17091;SDS011;8661;45.700;4.880;2022-12-08T13:55:41;37.07;;;19.20;;
17091;SDS011;8661;45.700;4.880;2022-12-08T13:58:17;40.50;;;19.83;;
17091;SDS011;8661;45.700;4.880;2022-12-08T14:00:55;34.83;;;19.90;;
17091;SDS011;8661;45.700;4.880;2022-12-08T14:03:28;37.63;;;20.00;;
17091;SDS011;8661;45.700;4.880;2022-12-08T14:05:56;34.03;;;19.33;;
17091;SDS011;8661;45.700;4.880;2022-12-08T14:08:25;36.97;;;20.63;;
17091;SDS011;8661;45.700;4.880;2022-12-08T14:10:57;28.80;;;18.10;;
17091;SDS011;8661;45.700;4.880;2022-12-08T14:13:27;33.50;;;18.97;;
17091;SDS011;8661;45.700;4.880;2022-12-08T14:15:56;38.87;;;19.23;;
17091;SDS011;8661;45.700;4.880;2022-12-08T14:18:24;33.37;;;17.97;;
17091;SDS011;8661;45.700;4.880;2022-12-08T14:21:02;35.10;;;19.13;;
17091;SDS011;8661;45.700;4.880;2022-12-08T14:23:33;38.43;;;19.67;;
17091;SDS011;8661;45.700;4.880;2022-12-08T14:26:01;37.73;;;19.20;;
17091;SDS011;8661;45.700;4.880;2022-12-08T14:28:30;34.50;;;19.70;;
17091;SDS011;8661;45.700;4.880;2022-12-08T14:30:57;38.47;;;19.27;;
17091;SDS011;8661;45.700;4.880;2022-12-08T14:33:25;34.33;;;18.97;;
17091;SDS011;8661;45.700;4.880;2022-12-08T14:35:54;33.20;;;18.80;;
17091;SDS011;8661;45.700;4.880;2022-12-08T14:38:23;33.00;;;19.73;;
17091;SDS011;8661;45.700;4.880;2022-12-08T14:41:01;31.93;;;19.33;;
17091;SDS011;8661;45.700;4.880;2022-12-08T14:43:31;32.10;;;18.63;;
17091;SDS011;8661;45.700;4.880;2022-12-08T14:45:59;36.90;;;18.57;;
17091;SDS011;8661;45.700;4.880;2022-12-08T14:48:38;34.10;;;19.70;;
17091;SDS011;8661;45.700;4.880;2022-12-08T14:51:14;37.20;;;19.67;;
17091;SDS011;8661;45.700;4.880;2022-12-08T14:53:53;31.43;;;18.63;;
17091;SDS011;8661;45.700;4.880;2022-12-08T14:56:23;37.53;;;20.13;;
17091;SDS011;8661;45.700;4.880;2022-12-08T14:59:10;33.33;;;18.70;;
17091;SDS011;8661;45.700;4.880;2022-12-08T15:01:39;30.47;;;18.00;;
17091;SDS011;8661;45.700;4.880;2022-12-08T15:04:12;36.43;;;20.40;;
17091;SDS011;8661;45.700;4.880;2022-12-08T15:06:45;30.33;;;18.80;;
17091;SDS011;8661;45.700;4.880;2022-12-08T15:09:26;33.83;;;19.57;;
17091;SDS011;8661;45.700;4.880;2022-12-08T15:11:59;34.30;;;19.60;;
17091;SDS011;8661;45.700;4.880;2022-12-08T15:14:27;33.20;;;19.10;;
17091;SDS011;8661;45.700;4.880;2022-12-08T15:16:56;33.50;;;19.33;;
17091;SDS011;8661;45.700;4.880;2022-12-08T15:19:25;31.10;;;18.97;;